createdAt,value
2022-12-07T00:01:07.884Z,16.58
2022-12-07T00:03:35.067Z,16.08
2022-12-07T00:06:03.301Z,13.88
2022-12-07T00:08:30.797Z,14.10
2022-12-07T00:11:05.403Z,16.08
2022-12-07T00:13:33.989Z,14.43
2022-12-07T00:16:08.027Z,12.80
2022-12-07T00:18:35.034Z,11.25
2022-12-07T00:21:11.685Z,13.18
2022-12-07T00:23:39.234Z,14.80
2022-12-07T00:26:11.393Z,12.93
2022-12-07T00:28:38.332Z,12.82
2022-12-07T00:31:10.761Z,13.13
2022-12-07T00:33:37.994Z,14.30
2022-12-07T00:36:08.102Z,14.02
2022-12-07T00:38:37.044Z,14.70
2022-12-07T00:41:11.294Z,13.10
2022-12-07T00:43:38.509Z,15.27
2022-12-07T00:46:05.219Z,14.18
2022-12-07T00:48:31.822Z,11.85
2022-12-07T00:50:58.668Z,13.73
2022-12-07T00:53:25.570Z,13.00
2022-12-07T00:55:53.502Z,13.73
2022-12-07T00:58:20.636Z,13.18
2022-12-07T01:00:47.177Z,11.88
2022-12-07T01:03:18.193Z,12.48
2022-12-07T01:05:56.053Z,12.32
2022-12-07T01:08:24.204Z,11.65
2022-12-07T01:10:58.650Z,12.20
2022-12-07T01:13:25.197Z,14.80
2022-12-07T01:15:51.768Z,13.75
2022-12-07T01:18:18.299Z,16.30
2022-12-07T01:20:44.883Z,13.30
2022-12-07T01:23:11.444Z,12.93
2022-12-07T01:25:38.040Z,16.38
2022-12-07T01:28:04.729Z,15.57
2022-12-07T01:30:31.279Z,17.50
2022-12-07T01:32:57.844Z,15.45
2022-12-07T01:35:24.457Z,13.00
2022-12-07T01:37:51.051Z,13.43
2022-12-07T01:40:18.889Z,15.32
2022-12-07T01:42:45.531Z,14.70
2022-12-07T01:45:36.858Z,13.68
2022-12-07T01:48:05.044Z,13.50
2022-12-07T01:50:34.468Z,13.27
2022-12-07T01:53:05.383Z,16.00
2022-12-07T01:55:32.100Z,16.15
2022-12-07T01:57:59.115Z,15.38
2022-12-07T02:00:25.775Z,16.90
2022-12-07T02:02:56.771Z,15.02
2022-12-07T02:05:25.804Z,13.90
2022-12-07T02:07:55.758Z,15.25
2022-12-07T02:10:27.804Z,12.77
2022-12-07T02:13:02.611Z,16.90
2022-12-07T02:16:03.106Z,13.18
2022-12-07T02:18:45.678Z,13.63
2022-12-07T02:21:38.802Z,15.05
2022-12-07T02:24:19.969Z,11.85
2022-12-07T02:27:29.085Z,11.15
2022-12-07T02:30:06.150Z,11.05
2022-12-07T02:32:45.068Z,11.77
2022-12-07T02:35:22.911Z,10.90
2022-12-07T02:38:08.010Z,9.88
2022-12-07T02:40:39.133Z,10.55
2022-12-07T02:43:16.257Z,12.27
2022-12-07T02:45:44.895Z,15.02
2022-12-07T02:48:14.633Z,13.70
2022-12-07T02:50:48.837Z,11.97
2022-12-07T02:53:37.796Z,12.00
2022-12-07T02:56:13.379Z,13.60
2022-12-07T02:58:40.038Z,12.20
2022-12-07T03:01:29.120Z,10.77
2022-12-07T03:04:19.310Z,12.00
2022-12-07T03:06:54.464Z,10.73
2022-12-07T03:09:54.105Z,10.57
2022-12-07T03:12:29.103Z,12.30
2022-12-07T03:15:07.287Z,13.00
2022-12-07T03:17:38.766Z,13.32
2022-12-07T03:20:08.649Z,12.00
2022-12-07T03:22:39.476Z,11.77
2022-12-07T03:25:11.677Z,12.50
2022-12-07T03:27:56.771Z,13.07
2022-12-07T03:30:30.736Z,13.23
2022-12-07T03:33:19.151Z,13.75
2022-12-07T03:36:08.867Z,12.10
2022-12-07T03:39:03.070Z,12.75
2022-12-07T03:41:32.796Z,12.98
2022-12-07T03:43:59.853Z,14.00
2022-12-07T03:46:35.213Z,16.50
2022-12-07T03:49:10.032Z,14.38
2022-12-07T03:51:57.153Z,17.90
2022-12-07T03:54:29.707Z,14.15
2022-12-07T03:56:57.976Z,16.85
2022-12-07T03:59:25.392Z,14.32
2022-12-07T04:02:02.030Z,13.65
2022-12-07T04:04:29.048Z,15.85
2022-12-07T04:06:55.676Z,14.73
2022-12-07T04:09:22.395Z,14.75
2022-12-07T04:11:49.433Z,14.23
2022-12-07T04:14:19.371Z,13.45
2022-12-07T04:16:57.765Z,14.88
2022-12-07T04:19:30.011Z,15.73
2022-12-07T04:21:58.158Z,18.27
2022-12-07T04:24:25.740Z,14.82
2022-12-07T04:26:52.712Z,17.23
2022-12-07T04:29:20.416Z,16.52
2022-12-07T04:31:47.048Z,16.17
2022-12-07T04:34:14.533Z,14.23
2022-12-07T04:36:41.505Z,16.67
2022-12-07T04:39:14.368Z,15.38
2022-12-07T04:41:40.922Z,14.00
2022-12-07T04:44:08.445Z,15.65
2022-12-07T04:46:35.147Z,16.85
2022-12-07T04:49:01.777Z,15.95
2022-12-07T04:51:29.838Z,16.75
2022-12-07T04:53:57.171Z,14.68
2022-12-07T04:56:24.945Z,17.48
2022-12-07T04:58:53.386Z,18.70
2022-12-07T05:01:21.346Z,17.50
2022-12-07T05:03:48.168Z,18.73
2022-12-07T05:06:15.399Z,16.73
2022-12-07T05:08:42.930Z,14.43
2022-12-07T05:11:10.469Z,18.30
2022-12-07T05:13:37.364Z,13.02
2022-12-07T05:16:04.333Z,15.63
2022-12-07T05:18:30.970Z,15.82
2022-12-07T05:20:57.513Z,17.90
2022-12-07T05:23:24.093Z,15.73
2022-12-07T05:25:50.912Z,13.82
2022-12-07T05:28:17.776Z,13.23
2022-12-07T05:30:44.470Z,15.15
2022-12-07T05:33:11.385Z,15.20
2022-12-07T05:35:38.879Z,14.40
2022-12-07T05:38:05.555Z,13.30
2022-12-07T05:40:32.105Z,13.82
2022-12-07T05:43:04.536Z,12.88
2022-12-07T05:45:31.889Z,11.77
2022-12-07T05:47:58.529Z,12.82
2022-12-07T05:50:25.162Z,12.52
2022-12-07T05:53:00.857Z,11.00
2022-12-07T05:55:27.452Z,10.48
2022-12-07T05:58:12.537Z,12.40
2022-12-07T06:00:39.102Z,11.00
2022-12-07T06:03:05.859Z,8.68
2022-12-07T06:05:32.444Z,9.05
2022-12-07T06:08:04.112Z,10.32
2022-12-07T06:10:32.436Z,11.13
2022-12-07T06:12:58.983Z,13.38
2022-12-07T06:15:25.523Z,12.50
2022-12-07T06:17:52.172Z,11.93
2022-12-07T06:20:18.853Z,9.05
2022-12-07T06:22:45.447Z,10.20
2022-12-07T06:25:12.022Z,8.10
2022-12-07T06:27:38.590Z,7.85
2022-12-07T06:30:07.575Z,7.40
2022-12-07T06:32:34.745Z,7.28
2022-12-07T06:35:01.382Z,9.65
2022-12-07T06:37:28.013Z,8.30
2022-12-07T06:39:54.814Z,5.55
2022-12-07T06:42:21.354Z,8.15
2022-12-07T06:44:47.939Z,6.68
2022-12-07T06:50:01.600Z,6.20
2022-12-07T06:52:28.309Z,5.50
2022-12-07T06:54:54.900Z,5.82
2022-12-07T06:57:21.439Z,7.38
2022-12-07T06:59:47.972Z,8.50
2022-12-07T07:02:14.581Z,5.97
2022-12-07T07:04:41.167Z,5.35
2022-12-07T07:07:07.771Z,7.97
2022-12-07T07:09:34.651Z,6.25
2022-12-07T07:12:01.541Z,6.35
2022-12-07T07:14:28.133Z,6.63
2022-12-07T07:16:54.763Z,10.80
2022-12-07T07:19:21.628Z,6.32
2022-12-07T07:21:48.185Z,8.02
2022-12-07T07:24:14.962Z,7.10
2022-12-07T07:26:41.522Z,5.05
2022-12-07T07:29:08.110Z,6.20
2022-12-07T07:31:36.472Z,5.65
2022-12-07T07:34:03.117Z,6.70
2022-12-07T07:36:29.688Z,7.60
2022-12-07T07:38:56.263Z,6.80
2022-12-07T07:41:22.860Z,7.28
2022-12-07T07:43:49.430Z,7.65
2022-12-07T07:46:16.050Z,4.60
2022-12-07T07:48:42.627Z,4.03
2022-12-07T07:51:09.275Z,7.60
2022-12-07T07:53:35.906Z,8.15
2022-12-07T07:56:02.520Z,8.82
2022-12-07T07:58:29.056Z,7.82
2022-12-07T08:00:55.691Z,5.70
2022-12-07T08:03:22.367Z,6.00
2022-12-07T08:05:49.027Z,9.95
2022-12-07T08:08:15.676Z,7.03
2022-12-07T08:10:42.285Z,7.85
2022-12-07T08:13:11.703Z,8.93
2022-12-07T08:15:40.221Z,10.75
2022-12-07T08:18:06.938Z,11.00
2022-12-07T08:20:35.048Z,8.13
2022-12-07T08:23:02.102Z,10.30
2022-12-07T08:25:28.821Z,11.32
2022-12-07T08:27:55.635Z,12.32
2022-12-07T08:30:22.830Z,10.80
2022-12-07T08:32:49.747Z,9.90
2022-12-07T08:35:16.869Z,10.45
2022-12-07T08:37:43.673Z,11.35
2022-12-07T08:40:12.481Z,11.60
2022-12-07T08:42:40.967Z,8.88
2022-12-07T08:45:10.520Z,11.45
2022-12-07T08:47:39.754Z,11.55
2022-12-07T08:50:08.752Z,10.65
2022-12-07T08:52:36.996Z,12.32
2022-12-07T08:55:05.739Z,12.00
2022-12-07T08:57:35.104Z,10.35
2022-12-07T09:00:01.995Z,15.30
2022-12-07T09:02:28.893Z,11.63
2022-12-07T09:04:55.451Z,10.70
2022-12-07T09:07:22.058Z,12.15
2022-12-07T09:09:48.646Z,9.90
2022-12-07T09:12:15.188Z,9.68
2022-12-07T09:14:41.787Z,11.35
2022-12-07T09:17:10.666Z,7.10
2022-12-07T09:19:37.418Z,10.55
2022-12-07T09:22:05.766Z,9.30
2022-12-07T09:24:33.151Z,11.18
2022-12-07T09:26:59.709Z,9.27
2022-12-07T09:29:26.399Z,9.88
2022-12-07T09:31:53.734Z,8.38
2022-12-07T09:34:21.131Z,9.00
2022-12-07T09:36:47.862Z,9.23
2022-12-07T09:39:14.430Z,7.85
2022-12-07T09:41:43.838Z,9.20
2022-12-07T09:44:14.762Z,9.93
2022-12-07T09:46:43.970Z,9.60
2022-12-07T09:49:18.118Z,8.85
2022-12-07T09:51:45.176Z,8.57
2022-12-07T09:54:17.406Z,10.77
2022-12-07T09:56:45.288Z,8.75
2022-12-07T09:59:19.148Z,8.85
2022-12-07T10:01:48.540Z,6.80
2022-12-07T10:04:19.896Z,9.60
2022-12-07T10:06:47.456Z,8.57
2022-12-07T10:09:15.828Z,6.47
2022-12-07T10:12:04.887Z,6.53
2022-12-07T10:15:05.712Z,7.28
2022-12-07T10:17:48.541Z,8.27
2022-12-07T10:20:18.143Z,6.82
2022-12-07T10:22:58.397Z,9.65
2022-12-07T10:25:29.270Z,8.95
2022-12-07T10:28:17.210Z,7.75
2022-12-07T10:31:03.207Z,8.00
2022-12-07T10:33:31.083Z,7.03
2022-12-07T10:35:58.393Z,6.38
2022-12-07T10:38:27.884Z,8.60
2022-12-07T10:41:08.305Z,8.38
2022-12-07T10:43:35.185Z,5.35
2022-12-07T10:46:30.101Z,6.32
2022-12-07T10:49:08.049Z,9.20
2022-12-07T10:51:53.325Z,7.43
2022-12-07T10:54:38.210Z,7.82
2022-12-07T10:57:22.490Z,10.18
2022-12-07T11:00:01.311Z,8.80
2022-12-07T11:02:51.044Z,9.45
2022-12-07T11:05:33.882Z,7.93
2022-12-07T11:08:10.553Z,6.65
2022-12-07T11:10:45.300Z,7.03
2022-12-07T11:13:11.817Z,8.73
2022-12-07T11:16:04.419Z,8.60
2022-12-07T11:18:46.155Z,11.88
2022-12-07T11:21:27.859Z,10.25
2022-12-07T11:24:13.142Z,9.43
2022-12-07T11:26:55.290Z,7.82
2022-12-07T11:30:00.565Z,7.10
2022-12-07T11:33:10.780Z,8.60
2022-12-07T11:35:54.054Z,7.80
2022-12-07T11:38:43.828Z,9.45
2022-12-07T11:41:14.453Z,6.70
2022-12-07T11:46:17.977Z,6.47
2022-12-07T11:48:51.965Z,3.75
2022-12-07T11:51:22.047Z,5.60
2022-12-07T11:54:18.011Z,7.43
2022-12-07T11:56:46.852Z,6.50
2022-12-07T11:59:35.039Z,7.43
2022-12-07T12:02:13.715Z,7.63
2022-12-07T12:05:03.897Z,7.10
2022-12-07T12:10:33.672Z,6.78
2022-12-07T12:16:31.467Z,8.98
2022-12-07T12:19:30.054Z,7.78
2022-12-07T12:22:05.147Z,7.75
2022-12-07T12:24:37.412Z,10.82
2022-12-07T12:27:10.301Z,7.40
2022-12-07T12:29:42.720Z,7.10
2022-12-07T12:32:23.140Z,8.32
2022-12-07T12:35:00.772Z,11.90
2022-12-07T12:37:40.992Z,11.13
2022-12-07T12:40:16.852Z,7.93
2022-12-07T12:42:50.263Z,7.35
2022-12-07T12:45:31.375Z,8.68
2022-12-07T12:48:02.853Z,12.80
2022-12-07T12:50:39.405Z,6.85
2022-12-07T12:53:13.697Z,7.22
2022-12-07T12:55:43.185Z,6.63
2022-12-07T12:58:18.810Z,7.38
2022-12-07T13:00:47.826Z,9.00
2022-12-07T13:03:29.787Z,7.93
2022-12-07T13:06:36.327Z,7.07
2022-12-07T13:09:03.512Z,6.32
2022-12-07T13:11:34.387Z,6.95
2022-12-07T13:14:40.773Z,4.47
2022-12-07T13:17:33.396Z,3.85
2022-12-07T13:20:11.606Z,3.60
2022-12-07T13:22:47.886Z,6.00
2022-12-07T13:25:34.605Z,5.35
2022-12-07T13:28:16.566Z,4.45
2022-12-07T13:30:55.391Z,3.13
2022-12-07T13:33:22.055Z,2.90
2022-12-07T13:35:48.645Z,2.22
2022-12-07T13:38:29.463Z,3.65
2022-12-07T13:41:03.249Z,5.28
2022-12-07T13:43:29.836Z,4.10
2022-12-07T13:46:01.796Z,7.95
2022-12-07T13:48:47.530Z,8.18
2022-12-07T13:51:28.868Z,8.18
2022-12-07T13:54:10.511Z,7.30
2022-12-07T13:56:37.502Z,7.28
2022-12-07T13:59:13.423Z,10.07
2022-12-07T14:01:40.139Z,6.70
2022-12-07T14:04:18.954Z,7.38
2022-12-07T14:06:51.902Z,8.52
2022-12-07T14:09:23.897Z,5.90
2022-12-07T14:11:52.865Z,6.35
2022-12-07T14:14:23.497Z,6.35
2022-12-07T14:19:50.347Z,7.30
2022-12-07T14:22:24.824Z,7.70
2022-12-07T14:24:51.874Z,10.10
2022-12-07T14:27:20.882Z,10.10
2022-12-07T14:29:48.310Z,7.82
2022-12-07T14:32:30.477Z,6.75
2022-12-07T14:35:18.314Z,10.30
2022-12-07T14:37:47.794Z,6.32
2022-12-07T14:40:17.290Z,7.40
2022-12-07T14:42:47.610Z,6.85
2022-12-07T14:45:16.791Z,6.47
2022-12-07T14:50:30.516Z,7.53
2022-12-07T14:55:47.356Z,8.32
2022-12-07T14:58:16.384Z,5.85
2022-12-07T15:00:43.883Z,8.70
2022-12-07T15:03:11.158Z,5.97
2022-12-07T15:05:38.560Z,5.10
2022-12-07T15:08:05.605Z,6.53
2022-12-07T15:10:34.949Z,9.32
2022-12-07T15:13:22.681Z,6.97
2022-12-07T15:15:50.908Z,8.25
2022-12-07T15:18:18.761Z,11.95
2022-12-07T15:20:46.071Z,9.95
2022-12-07T15:23:13.666Z,9.05
2022-12-07T15:25:44.787Z,5.70
2022-12-07T15:28:11.518Z,4.78
2022-12-07T15:30:43.767Z,4.57
2022-12-07T15:33:11.486Z,3.85
2022-12-07T15:35:45.657Z,4.38
2022-12-07T15:38:12.363Z,5.55
2022-12-07T15:40:39.580Z,5.78
2022-12-07T15:43:26.137Z,5.18
2022-12-07T15:45:52.704Z,5.63
2022-12-07T15:48:27.708Z,6.22
2022-12-07T15:51:02.268Z,5.22
2022-12-07T15:53:28.799Z,7.15
2022-12-07T15:55:55.513Z,5.75
2022-12-07T15:58:22.062Z,7.05
2022-12-07T16:00:49.103Z,5.32
2022-12-07T16:03:15.751Z,8.38
2022-12-07T16:05:42.356Z,9.95
2022-12-07T16:08:08.957Z,10.65
2022-12-07T16:10:35.617Z,7.43
2022-12-07T16:13:02.196Z,8.02
2022-12-07T16:15:28.718Z,6.88
2022-12-07T16:17:56.489Z,6.07
2022-12-07T16:20:23.122Z,10.00
2022-12-07T16:22:53.201Z,9.10
2022-12-07T16:25:19.779Z,9.23
2022-12-07T16:27:46.310Z,4.28
2022-12-07T16:30:15.013Z,4.85
2022-12-07T16:32:41.598Z,7.60
2022-12-07T16:35:08.651Z,4.47
2022-12-07T16:37:35.249Z,6.45
2022-12-07T16:40:01.826Z,6.50
2022-12-07T16:42:33.335Z,5.18
2022-12-07T16:45:00.139Z,5.88
2022-12-07T16:47:27.201Z,5.82
2022-12-07T16:49:53.902Z,6.32
2022-12-07T16:52:21.765Z,4.88
2022-12-07T16:54:50.060Z,4.78
2022-12-07T16:57:22.333Z,7.38
2022-12-07T16:59:50.586Z,5.43
2022-12-07T17:02:17.206Z,5.80
2022-12-07T17:04:43.810Z,7.10
2022-12-07T17:07:11.137Z,5.80
2022-12-07T17:09:38.143Z,5.55
2022-12-07T17:12:06.908Z,4.95
2022-12-07T17:14:52.208Z,5.15
2022-12-07T17:17:18.745Z,5.60
2022-12-07T17:19:46.345Z,5.70
2022-12-07T17:22:13.811Z,8.60
2022-12-07T17:24:40.437Z,6.20
2022-12-07T17:27:07.375Z,4.03
2022-12-07T17:29:33.913Z,6.55
2022-12-07T17:32:00.599Z,5.20
2022-12-07T17:34:27.220Z,5.75
2022-12-07T17:36:55.618Z,3.03
2022-12-07T17:39:22.677Z,3.72
2022-12-07T17:42:07.819Z,3.17
2022-12-07T17:44:34.426Z,7.32
2022-12-07T17:47:03.736Z,3.55
2022-12-07T17:49:30.597Z,5.35
2022-12-07T17:52:16.252Z,4.32
2022-12-07T17:54:43.059Z,4.75
2022-12-07T17:57:09.606Z,5.47
2022-12-07T17:59:36.225Z,5.45
2022-12-07T18:02:03.187Z,3.50
2022-12-07T18:04:29.895Z,5.82
2022-12-07T18:06:56.632Z,8.65
2022-12-07T18:09:23.576Z,5.30
2022-12-07T18:11:50.155Z,4.38
2022-12-07T18:14:16.942Z,5.18
2022-12-07T18:16:44.059Z,4.75
2022-12-07T18:19:13.422Z,2.65
2022-12-07T18:21:40.549Z,5.53
2022-12-07T18:24:09.950Z,4.05
2022-12-07T18:26:37.496Z,3.50
2022-12-07T18:29:05.953Z,5.05
2022-12-07T18:31:33.823Z,5.47
2022-12-07T18:34:04.076Z,4.13
2022-12-07T18:36:31.210Z,4.05
2022-12-07T18:38:57.785Z,4.72
2022-12-07T18:41:24.315Z,6.43
2022-12-07T18:43:50.867Z,8.63
2022-12-07T18:46:20.674Z,4.38
2022-12-07T18:48:48.080Z,8.48
2022-12-07T18:51:15.465Z,6.35
2022-12-07T18:53:42.989Z,8.68
2022-12-07T18:56:13.435Z,7.10
2022-12-07T18:59:03.776Z,5.85
2022-12-07T19:01:31.436Z,2.88
2022-12-07T19:03:59.123Z,7.60
2022-12-07T19:06:26.194Z,3.05
2022-12-07T19:08:53.741Z,2.75
2022-12-07T19:11:40.857Z,5.15
2022-12-07T19:14:07.501Z,2.47
2022-12-07T19:16:34.203Z,3.15
2022-12-07T19:19:01.377Z,5.35
2022-12-07T19:21:28.773Z,3.25
2022-12-07T19:23:56.326Z,2.38
2022-12-07T19:26:23.832Z,4.03
2022-12-07T19:28:51.080Z,2.92
2022-12-07T19:31:17.980Z,4.13
2022-12-07T19:33:44.683Z,3.05
2022-12-07T19:36:11.315Z,3.97
2022-12-07T19:38:37.935Z,6.20
2022-12-07T19:41:33.064Z,5.40
2022-12-07T19:44:11.920Z,6.20
2022-12-07T19:46:39.408Z,5.68
2022-12-07T19:49:05.954Z,4.97
2022-12-07T19:51:32.743Z,7.32
2022-12-07T19:54:00.727Z,8.07
2022-12-07T19:56:29.309Z,4.65
2022-12-07T19:58:58.388Z,7.03
2022-12-07T20:01:25.027Z,6.38
2022-12-07T20:03:51.741Z,5.63
2022-12-07T20:06:19.740Z,8.93
2022-12-07T20:08:48.026Z,3.78
2022-12-07T20:11:35.600Z,7.65
2022-12-07T20:14:02.240Z,6.25
2022-12-07T20:16:28.944Z,5.40
2022-12-07T20:18:57.863Z,5.55
2022-12-07T20:21:25.229Z,6.15
2022-12-07T20:23:52.330Z,5.55
2022-12-07T20:26:19.516Z,7.10
2022-12-07T20:28:46.837Z,7.85
2022-12-07T20:31:14.861Z,5.03
2022-12-07T20:33:43.430Z,6.70
2022-12-07T20:36:10.239Z,5.82
2022-12-07T20:38:37.375Z,5.00
2022-12-07T20:41:29.128Z,9.18
2022-12-07T20:43:56.760Z,3.90
2022-12-07T20:46:23.599Z,4.25
2022-12-07T20:48:50.810Z,4.43
2022-12-07T20:51:17.741Z,5.45
2022-12-07T20:53:44.309Z,6.30
2022-12-07T20:56:24.197Z,6.53
2022-12-07T20:58:50.797Z,5.80
2022-12-07T21:01:17.396Z,12.48
2022-12-07T21:03:44.010Z,8.60
2022-12-07T21:06:14.339Z,6.70
2022-12-07T21:08:50.092Z,5.40
2022-12-07T21:11:17.998Z,7.22
2022-12-07T21:13:45.381Z,4.72
2022-12-07T21:16:18.974Z,6.22
2022-12-07T21:18:48.005Z,4.97
2022-12-07T21:21:19.180Z,3.95
2022-12-07T21:23:47.530Z,6.53
2022-12-07T21:26:17.563Z,5.15
2022-12-07T21:28:44.357Z,7.10
2022-12-07T21:31:13.305Z,6.57
2022-12-07T21:33:40.770Z,4.20
2022-12-07T21:36:09.809Z,8.45
2022-12-07T21:38:36.529Z,5.18
2022-12-07T21:41:14.207Z,6.75
2022-12-07T21:43:41.273Z,6.90
2022-12-07T21:46:08.281Z,5.88
2022-12-07T21:48:35.189Z,8.70
2022-12-07T21:51:13.327Z,7.40
2022-12-07T21:53:42.508Z,6.82
2022-12-07T21:56:31.021Z,6.07
2022-12-07T21:59:04.121Z,4.80
2022-12-07T22:01:35.595Z,6.40
2022-12-07T22:04:02.320Z,7.63
2022-12-07T22:06:29.033Z,6.60
2022-12-07T22:08:56.029Z,9.32
2022-12-07T22:11:22.798Z,7.78
2022-12-07T22:14:10.538Z,6.55
2022-12-07T22:16:39.045Z,5.43
2022-12-07T22:19:07.339Z,5.97
2022-12-07T22:21:34.465Z,7.03
2022-12-07T22:24:01.702Z,6.45
2022-12-07T22:26:28.353Z,5.18
2022-12-07T22:28:55.011Z,4.63
2022-12-07T22:31:22.450Z,7.43
2022-12-07T22:33:50.333Z,8.73
2022-12-07T22:36:17.087Z,6.25
2022-12-07T22:38:44.363Z,6.38
2022-12-07T22:41:32.348Z,6.28
2022-12-07T22:44:00.250Z,7.65
2022-12-07T22:46:27.657Z,6.82
2022-12-07T22:48:54.321Z,6.82
2022-12-07T22:51:25.120Z,4.18
2022-12-07T22:53:53.326Z,10.27
2022-12-07T22:56:20.645Z,4.60
2022-12-07T22:58:48.226Z,7.22
2022-12-07T23:01:16.993Z,7.38
2022-12-07T23:03:45.081Z,4.97
2022-12-07T23:06:17.384Z,6.20
2022-12-07T23:08:44.432Z,6.75
2022-12-07T23:11:38.406Z,8.88
2022-12-07T23:14:12.344Z,6.65
2022-12-07T23:16:39.341Z,5.78
2022-12-07T23:19:05.963Z,5.97
2022-12-07T23:21:32.614Z,6.70
2022-12-07T23:23:59.203Z,4.63
2022-12-07T23:26:26.086Z,7.57
2022-12-07T23:28:53.030Z,7.45
2022-12-07T23:31:20.950Z,5.53
2022-12-07T23:33:47.608Z,5.72
2022-12-07T23:36:17.377Z,7.63
2022-12-07T23:38:45.998Z,8.93
2022-12-07T23:41:14.806Z,6.00
2022-12-07T23:43:42.620Z,5.18
2022-12-07T23:46:13.131Z,3.80
2022-12-07T23:48:40.136Z,4.30
2022-12-07T23:51:08.170Z,7.22
2022-12-07T23:53:36.413Z,8.02
2022-12-07T23:56:04.093Z,8.38
2022-12-07T23:58:31.649Z,6.20
